Terminal Aerodrome Forecast
Issued by NWS

Home | Current Version | Previous Version | Text Only | Print | Product List | Glossary On
Versions: 1 2 3 4 5 6 7 8 9 10 11 12 13 14
000
FTUS45 KABQ 052325
TAFTCC
TAF
KTCC 052325Z 0600/0624 20015G22KT P6SM VCTS SCT080CB BKN150
      TEMPO 0600/0603 VRB20G30KT BKN045CB OVC090
     FM060300 20008KT P6SM VCSH BKN060 BKN150
     FM060900 32007KT P6SM BKN080 BKN150
     FM061300 03012G18KT P6SM SCT080 SCT150
     FM061800 07010KT P6SM BKN060 BKN090
     FM062200 03010KT P6SM VCTS BKN040CB OVC070=

USA.gov is the U.S. government's official web portal to all federal, state and local government web resources and services.